Time;durP1;ratioP1;P1;durP2;ratioP2;P2;SDS_P1;SDS_P2;PMS_P1;PMS_P2;Temp;Humidity;BMP_temperature;BMP_pressure;BME280_temperature;BME280_humidity;BME280_pressure;Samples;Min_cycle;Max_cycle;Signal;HPM_P1;HPM_P2
2021/03/24 00:01:18;;;;;;;17.63;11.68;;;17.50;54.30;;;;;;5037953;28;20030;-70
2021/03/24 00:03:44;;;;;;;16.73;11.73;;;17.50;54.40;;;;;;5033748;28;20074;-70
2021/03/24 00:06:10;;;;;;;15.48;10.82;;;17.50;54.40;;;;;;5036486;28;20516;-70
2021/03/24 00:08:36;;;;;;;17.85;12.32;;;17.50;54.40;;;;;;5036798;28;20033;-70
2021/03/24 00:11:02;;;;;;;17.60;11.48;;;17.40;54.40;;;;;;5048280;28;20494;-69
2021/03/24 00:13:28;;;;;;;18.00;12.05;;;17.40;54.40;;;;;;5034726;28;20029;-70
2021/03/24 00:15:53;;;;;;;16.27;11.70;;;17.40;54.50;;;;;;5032512;28;20029;-70
2021/03/24 00:18:19;;;;;;;16.23;11.88;;;17.40;54.60;;;;;;5035772;28;20060;-70
2021/03/24 00:20:45;;;;;;;17.25;11.45;;;17.40;54.60;;;;;;5050330;28;20386;-69
2021/03/24 00:23:11;;;;;;;16.65;11.20;;;17.30;54.60;;;;;;5036694;28;20030;-69
2021/03/24 00:25:38;;;;;;;17.73;12.27;;;17.30;54.60;;;;;;5033347;28;20124;-69
2021/03/24 00:28:05;;;;;;;17.08;12.13;;;17.30;54.70;;;;;;5031441;28;20025;-68
2021/03/24 00:30:33;;;;;;;17.83;12.13;;;17.30;54.80;;;;;;5047302;28;20037;-70
2021/03/24 00:32:59;;;;;;;19.42;12.60;;;17.30;54.80;;;;;;5050705;28;20497;-69
2021/03/24 00:35:25;;;;;;;16.83;11.15;;;17.30;54.70;;;;;;5033900;28;20037;-69
2021/03/24 00:37:51;;;;;;;19.77;12.10;;;17.20;54.70;;;;;;5043297;28;20029;-69
2021/03/24 00:40:36;;;;;;;17.20;12.00;;;17.20;54.80;;;;;;5035594;28;20486;-70
2021/03/24 00:43:04;;;;;;;17.33;12.45;;;17.20;54.90;;;;;;5049679;28;20498;-70
2021/03/24 00:45:30;;;;;;;19.88;12.60;;;17.20;55.00;;;;;;5046507;28;20025;-70
2021/03/24 00:47:56;;;;;;;18.52;12.77;;;17.10;55.00;;;;;;5032641;28;20025;-69
2021/03/24 00:50:24;;;;;;;16.88;12.23;;;17.10;55.10;;;;;;5030913;28;20033;-70
2021/03/24 00:52:50;;;;;;;17.58;12.10;;;17.20;55.20;;;;;;5038096;28;20025;-70
2021/03/24 00:55:16;;;;;;;18.40;11.75;;;17.30;54.80;;;;;;5046793;28;20037;-70
2021/03/24 00:57:42;;;;;;;18.45;12.02;;;17.30;54.40;;;;;;5032172;28;20018;-70
2021/03/24 01:00:20;;;;;;;17.98;12.15;;;17.40;54.40;;;;;;5032167;28;20029;-71
2021/03/24 01:02:46;;;;;;;17.33;11.90;;;17.40;54.20;;;;;;5051115;28;20029;-70
2021/03/24 01:05:14;;;;;;;17.98;12.57;;;17.40;54.20;;;;;;5042051;28;20108;-70
2021/03/24 01:07:41;;;;;;;16.63;11.10;;;17.40;54.20;;;;;;5037629;28;20033;-69
2021/03/24 01:10:11;;;;;;;17.35;12.02;;;17.30;54.10;;;;;;5030953;28;20509;-70
2021/03/24 01:12:36;;;;;;;18.00;12.52;;;17.40;54.30;;;;;;5034804;28;20033;-70
2021/03/24 01:15:03;;;;;;;15.88;11.93;;;17.30;54.40;;;;;;5035942;28;20364;-69
2021/03/24 01:17:29;;;;;;;17.48;12.15;;;17.30;54.40;;;;;;5040713;28;20025;-70
2021/03/24 01:19:54;;;;;;;18.52;12.35;;;17.30;54.40;;;;;;5038640;28;20102;-70
2021/03/24 01:22:20;;;;;;;17.27;12.27;;;17.30;54.30;;;;;;5049689;28;20036;-70
2021/03/24 01:24:45;;;;;;;17.52;12.27;;;17.20;54.20;;;;;;5038811;28;20403;-70
2021/03/24 01:27:10;;;;;;;17.02;12.15;;;17.20;54.30;;;;;;5033431;28;20475;-70
2021/03/24 01:29:36;;;;;;;16.70;12.57;;;17.20;54.30;;;;;;5032932;28;20078;-70
2021/03/24 01:32:02;;;;;;;16.92;11.85;;;17.20;54.30;;;;;;5038034;28;20036;-70
2021/03/24 01:34:28;;;;;;;19.10;12.40;;;17.20;54.30;;;;;;5055464;28;20021;-70
2021/03/24 01:36:53;;;;;;;17.30;11.90;;;17.20;54.40;;;;;;5054487;28;20025;-69
2021/03/24 01:39:19;;;;;;;18.95;12.82;;;17.20;54.40;;;;;;5035599;28;20513;-69
2021/03/24 01:41:44;;;;;;;18.45;12.43;;;17.20;54.50;;;;;;5034417;28;20022;-70
2021/03/24 01:44:10;;;;;;;18.58;13.15;;;17.10;54.40;;;;;;5033050;28;20598;-71
2021/03/24 01:46:44;;;;;;;16.98;12.25;;;17.10;54.50;;;;;;5033076;28;20473;-70
2021/03/24 01:49:13;;;;;;;20.02;12.63;;;17.10;54.50;;;;;;5032675;28;20021;-70
2021/03/24 01:51:46;;;;;;;18.30;12.05;;;17.10;54.60;;;;;;5034048;28;20096;-70
2021/03/24 01:54:16;;;;;;;16.63;12.00;;;17.10;54.60;;;;;;5034485;28;20031;-70
2021/03/24 01:56:45;;;;;;;18.83;13.63;;;17.10;54.60;;;;;;5034159;28;20025;-70
2021/03/24 01:59:11;;;;;;;20.20;13.48;;;17.10;54.70;;;;;;5032607;28;20117;-69
2021/03/24 02:01:37;;;;;;;18.80;12.82;;;17.00;54.70;;;;;;5033982;28;20025;-69
2021/03/24 02:04:03;;;;;;;18.90;12.68;;;17.00;54.70;;;;;;5034043;28;20479;-70
2021/03/24 02:06:58;;;;;;;19.02;13.10;;;17.00;54.80;;;;;;5032515;28;20067;-69
2021/03/24 02:09:39;;;;;;;18.50;12.80;;;16.90;54.90;;;;;;5033568;28;20021;-69
2021/03/24 02:12:41;;;;;;;19.42;12.98;;;16.90;55.10;;;;;;5033809;28;20244;-69
2021/03/24 02:15:32;;;;;;;16.45;12.23;;;16.90;55.00;;;;;;5021664;28;20493;-70
2021/03/24 02:18:00;;;;;;;21.40;12.93;;;16.90;55.10;;;;;;5032378;28;20021;-69
2021/03/24 02:20:39;;;;;;;20.92;13.73;;;16.90;55.10;;;;;;5033346;28;20036;-69
2021/03/24 02:23:31;;;;;;;18.15;12.15;;;16.90;55.10;;;;;;5034536;28;20573;-70
2021/03/24 02:26:29;;;;;;;19.10;13.57;;;16.80;55.00;;;;;;5033608;28;20026;-71
2021/03/24 02:28:56;;;;;;;17.35;13.00;;;16.80;55.20;;;;;;5048630;28;20037;-69
2021/03/24 02:31:25;;;;;;;21.02;13.98;;;16.80;55.30;;;;;;5053249;28;20025;-69
2021/03/24 02:33:54;;;;;;;18.77;13.18;;;16.90;55.30;;;;;;5053317;28;20120;-70
2021/03/24 02:36:22;;;;;;;17.42;12.57;;;16.90;55.20;;;;;;5051994;28;20028;-70
2021/03/24 02:38:50;;;;;;;18.33;12.63;;;16.80;55.20;;;;;;5051723;28;20028;-70
2021/03/24 02:41:18;;;;;;;20.80;14.40;;;16.90;55.00;;;;;;5053124;28;20021;-69
2021/03/24 02:43:44;;;;;;;18.63;12.65;;;16.90;54.90;;;;;;5053156;28;20033;-70
2021/03/24 02:46:11;;;;;;;18.10;13.70;;;16.90;54.70;;;;;;5051805;28;20029;-70
2021/03/24 02:48:39;;;;;;;18.50;12.70;;;17.00;54.60;;;;;;5052782;28;20033;-70
2021/03/24 02:51:10;;;;;;;19.70;13.57;;;17.00;54.40;;;;;;5051661;28;20025;-70
2021/03/24 02:53:38;;;;;;;20.08;13.65;;;17.10;54.40;;;;;;5051658;28;20056;-70
2021/03/24 02:56:07;;;;;;;19.25;14.00;;;17.00;54.40;;;;;;5052767;28;20102;-70
2021/03/24 02:58:33;;;;;;;19.25;13.55;;;17.00;54.40;;;;;;5051260;28;20036;-70
2021/03/24 03:01:01;;;;;;;17.77;13.07;;;17.00;54.30;;;;;;5052742;28;20025;-70
2021/03/24 03:03:33;;;;;;;20.58;13.95;;;17.10;54.50;;;;;;5052826;28;20110;-70
2021/03/24 03:06:00;;;;;;;;;;;17.00;54.40;;;;;;5051933;28;20025;-70
2021/03/24 03:08:34;;;;;;;19.63;13.85;;;16.90;54.40;;;;;;5052426;28;19908;-70
2021/03/24 03:11:12;;;;;;;20.85;14.18;;;16.90;54.40;;;;;;5052515;28;20107;-71
2021/03/24 03:13:47;;;;;;;19.73;14.43;;;16.90;54.40;;;;;;5052761;28;20021;-69
2021/03/24 03:16:43;;;;;;;21.60;14.43;;;16.90;54.40;;;;;;5051304;28;20411;-70
2021/03/24 03:19:26;;;;;;;19.73;13.77;;;16.90;54.50;;;;;;5052032;28;20024;-71
2021/03/24 03:22:02;;;;;;;18.63;13.38;;;16.80;54.40;;;;;;5052451;28;20052;-69
2021/03/24 03:24:32;;;;;;;20.10;14.30;;;16.80;54.40;;;;;;5051690;28;20111;-70
2021/03/24 03:27:01;;;;;;;20.95;13.82;;;16.80;54.40;;;;;;5043833;28;20126;-70
2021/03/24 03:29:28;;;;;;;20.83;14.60;;;16.80;54.40;;;;;;5031840;28;20080;-70
2021/03/24 03:31:56;;;;;;;20.02;14.10;;;16.80;54.40;;;;;;5031020;28;20025;-71
2021/03/24 03:34:25;;;;;;;21.02;14.80;;;16.80;54.40;;;;;;5030367;28;20516;-71
2021/03/24 03:36:54;;;;;;;20.30;14.68;;;16.70;54.40;;;;;;5032322;28;20026;-70
2021/03/24 03:39:23;;;;;;;19.70;14.40;;;16.70;54.50;;;;;;5031840;28;20025;-70
2021/03/24 03:41:49;;;;;;;21.55;15.20;;;16.70;54.60;;;;;;5032214;28;20025;-70
2021/03/24 03:44:16;;;;;;;19.48;13.90;;;16.70;54.60;;;;;;5030907;28;20032;-70
2021/03/24 03:46:53;;;;;;;22.15;15.40;;;16.70;54.70;;;;;;5032148;28;20076;-70
2021/03/24 03:49:19;;;;;;;19.90;14.65;;;16.70;54.70;;;;;;5031718;28;20029;-69
2021/03/24 03:51:54;;;;;;;19.83;14.65;;;16.70;54.70;;;;;;5030683;28;20032;-70
2021/03/24 03:54:36;;;;;;;20.17;14.75;;;16.70;54.70;;;;;;5032023;28;20022;-70
2021/03/24 03:57:16;;;;;;;21.15;15.68;;;16.60;54.70;;;;;;5032066;28;20025;-69
2021/03/24 04:00:26;;;;;;;20.38;15.13;;;16.60;54.70;;;;;;5031468;28;20506;-70
2021/03/24 04:03:09;;;;;;;20.50;14.60;;;16.60;54.70;;;;;;5028488;28;20041;-69
2021/03/24 04:05:44;;;;;;;20.52;15.20;;;16.60;54.70;;;;;;5031917;28;20072;-69
2021/03/24 04:08:14;;;;;;;19.80;14.48;;;16.60;54.80;;;;;;5031466;28;20487;-69
2021/03/24 04:10:46;;;;;;;19.58;14.85;;;16.60;54.80;;;;;;5031673;28;20428;-69
2021/03/24 04:13:12;;;;;;;21.42;15.60;;;16.50;54.80;;;;;;5031705;28;20033;-70
2021/03/24 04:15:39;;;;;;;19.40;14.70;;;16.50;54.80;;;;;;5031694;28;20065;-70
2021/03/24 04:18:23;;;;;;;20.45;14.52;;;16.50;54.80;;;;;;5031504;28;20022;-69
2021/03/24 04:20:50;;;;;;;19.27;14.77;;;16.50;54.90;;;;;;5031510;28;20072;-69
2021/03/24 04:23:19;;;;;;;19.88;14.98;;;16.50;55.50;;;;;;5031584;28;20030;-71
2021/03/24 04:25:53;;;;;;;19.85;14.20;;;16.50;55.00;;;;;;5031522;28;20537;-69
2021/03/24 04:28:23;;;;;;;20.25;15.05;;;16.50;54.90;;;;;;5049607;28;20032;-69
2021/03/24 04:30:58;;;;;;;23.13;15.77;;;16.40;54.90;;;;;;5049960;28;20348;-69
2021/03/24 04:33:24;;;;;;;19.92;14.98;;;16.40;55.00;;;;;;5041188;28;20114;-71
2021/03/24 04:35:51;;;;;;;20.60;15.00;;;16.40;55.10;;;;;;5051277;28;20052;-70
2021/03/24 04:38:55;;;;;;;19.20;14.02;;;16.40;55.10;;;;;;5049745;28;20394;-70
2021/03/24 04:41:29;;;;;;;20.80;15.52;;;16.40;55.00;;;;;;5029079;28;20065;-71
2021/03/24 04:44:11;;;;;;;21.08;14.65;;;16.40;55.00;;;;;;5048492;28;20060;-70
2021/03/24 04:46:40;;;;;;;20.85;15.50;;;16.40;55.00;;;;;;5055306;28;20155;-70
2021/03/24 04:49:12;;;;;;;18.92;14.13;;;16.40;54.90;;;;;;5055019;28;20116;-70
2021/03/24 04:51:39;;;;;;;19.77;14.63;;;16.40;55.00;;;;;;5054007;28;20024;-70
2021/03/24 04:54:20;;;;;;;20.13;15.30;;;16.40;55.00;;;;;;5044081;28;20052;-70
2021/03/24 04:56:51;;;;;;;21.13;15.35;;;16.40;54.90;;;;;;5037851;28;20491;-70
2021/03/24 04:59:30;;;;;;;21.73;15.60;;;16.40;55.00;;;;;;5051754;28;20025;-70
2021/03/24 05:02:00;;;;;;;20.00;15.15;;;16.30;54.90;;;;;;5054889;28;20025;-69
2021/03/24 05:04:29;;;;;;;21.67;14.43;;;16.40;55.00;;;;;;5047282;28;20469;-70
2021/03/24 05:07:02;;;;;;;35.72;24.00;;;16.40;54.90;;;;;;5039602;28;20045;-69
2021/03/24 05:09:28;;;;;;;30.13;19.90;;;16.40;55.00;;;;;;5028323;28;20033;-68
2021/03/24 05:12:23;;;;;;;25.90;17.05;;;16.40;55.00;;;;;;5039415;28;20033;-70
2021/03/24 05:15:04;;;;;;;22.20;15.65;;;16.50;54.90;;;;;;5033395;28;20490;-70
2021/03/24 05:17:35;;;;;;;23.27;15.60;;;16.50;55.10;;;;;;5027062;28;20140;-69
2021/03/24 05:20:08;;;;;;;21.00;15.48;;;16.60;55.10;;;;;;5036866;28;20036;-70
2021/03/24 05:22:43;;;;;;;23.15;15.50;;;16.80;54.70;;;;;;5039534;28;20041;-71
2021/03/24 05:25:27;;;;;;;23.35;13.93;;;17.10;54.10;;;;;;5048483;28;20099;-71
2021/03/24 05:28:02;;;;;;;23.90;13.80;;;17.20;53.90;;;;;;5030421;28;20029;-70
2021/03/24 05:30:37;;;;;;;22.08;14.32;;;17.20;54.10;;;;;;5043963;28;20494;-69
2021/03/24 05:33:16;;;;;;;27.27;14.55;;;17.20;54.00;;;;;;5040590;28;20047;-70
2021/03/24 05:35:57;;;;;;;24.90;13.50;;;17.30;53.90;;;;;;5046495;28;20029;-71
2021/03/24 05:38:39;;;;;;;21.23;13.50;;;17.20;53.90;;;;;;5027352;28;20349;-70
2021/03/24 05:41:08;;;;;;;25.30;14.63;;;17.10;54.40;;;;;;5045099;28;20386;-71
2021/03/24 05:43:55;;;;;;;23.75;11.68;;;17.10;54.60;;;;;;5046212;28;20029;-70
2021/03/24 05:46:48;;;;;;;20.30;12.27;;;17.10;54.80;;;;;;5046265;28;20383;-70
2021/03/24 05:49:20;;;;;;;20.85;13.07;;;17.10;55.10;;;;;;5038077;28;20025;-71
2021/03/24 05:52:16;;;;;;;22.05;12.98;;;17.20;55.20;;;;;;5047342;28;20108;-71
2021/03/24 05:55:05;;;;;;;20.98;12.40;;;17.10;55.00;;;;;;5045948;28;20171;-72
2021/03/24 05:57:48;;;;;;;23.10;12.50;;;17.10;55.00;;;;;;5042363;28;20040;-69
2021/03/24 06:00:50;;;;;;;18.10;11.55;;;17.10;54.90;;;;;;5036395;28;20025;-70
2021/03/24 06:03:27;;;;;;;23.90;14.15;;;17.10;55.10;;;;;;5036392;28;20036;-69
2021/03/24 06:06:11;;;;;;;31.20;13.10;;;17.00;55.00;;;;;;5065863;28;20105;-69
2021/03/24 06:08:55;;;;;;;24.88;12.55;;;17.10;55.10;;;;;;5065640;28;20025;-69
2021/03/24 06:11:27;;;;;;;19.08;12.38;;;17.10;55.20;;;;;;5035771;28;20029;-69
2021/03/24 06:14:15;;;;;;;28.63;12.82;;;17.10;55.10;;;;;;5028602;28;20087;-68
2021/03/24 06:17:08;;;;;;;20.73;11.52;;;17.10;55.00;;;;;;5038423;28;20059;-69
2021/03/24 06:20:12;;;;;;;21.50;11.65;;;17.20;55.10;;;;;;5043451;28;20033;-70
2021/03/24 06:23:07;;;;;;;20.00;11.85;;;17.10;55.20;;;;;;5031249;28;20033;-71
2021/03/24 06:25:41;;;;;;;22.08;13.45;;;17.10;55.40;;;;;;5027443;28;20033;-70
2021/03/24 06:28:25;;;;;;;20.02;12.77;;;17.10;55.50;;;;;;5027077;28;20052;-70
2021/03/24 06:31:00;;;;;;;20.35;12.18;;;17.10;55.50;;;;;;5032840;28;20036;-70
2021/03/24 06:34:15;;;;;;;23.45;12.40;;;17.20;55.30;;;;;;5046948;28;20449;-70
2021/03/24 06:37:07;;;;;;;19.17;13.63;;;17.20;55.40;;;;;;5047180;28;20423;-70
2021/03/24 06:40:07;;;;;;;17.17;12.02;;;17.20;55.30;;;;;;5046709;28;20032;-70
2021/03/24 06:42:47;;;;;;;19.60;11.60;;;17.30;55.20;;;;;;5047119;28;20425;-71
2021/03/24 06:45:13;;;;;;;17.58;12.55;;;17.30;54.90;;;;;;5046936;28;20052;-71
2021/03/24 06:47:54;;;;;;;18.38;12.57;;;17.30;55.00;;;;;;5045547;28;20052;-67
2021/03/24 06:50:54;;;;;;;21.00;12.90;;;17.40;54.70;;;;;;5044538;28;20036;-70
2021/03/24 06:53:44;;;;;;;17.77;12.65;;;17.40;55.00;;;;;;5046368;28;20029;-71
2021/03/24 06:56:28;;;;;;;18.73;12.32;;;17.50;54.70;;;;;;5046527;28;20025;-70
2021/03/24 06:59:05;;;;;;;15.93;12.05;;;17.50;54.50;;;;;;5046177;28;20021;-70
2021/03/24 07:01:49;;;;;;;17.25;12.43;;;17.50;54.70;;;;;;5044895;28;20025;-70
2021/03/24 07:04:31;;;;;;;19.13;12.48;;;17.60;54.60;;;;;;5045522;28;20039;-70
2021/03/24 07:07:09;;;;;;;18.15;11.52;;;17.60;54.40;;;;;;5046719;28;20028;-67
2021/03/24 07:09:44;;;;;;;28.20;14.45;;;17.70;54.50;;;;;;5044731;28;20036;-69
2021/03/24 07:12:29;;;;;;;25.08;12.80;;;17.70;54.50;;;;;;5046610;28;20441;-70
2021/03/24 07:15:26;;;;;;;21.50;14.40;;;17.80;54.50;;;;;;5046705;28;20120;-70
2021/03/24 07:18:04;;;;;;;24.20;15.05;;;17.80;54.40;;;;;;5039572;28;20383;-70
2021/03/24 07:20:48;;;;;;;28.00;15.27;;;17.90;54.30;;;;;;5045431;28;20029;-70
2021/03/24 07:23:32;;;;;;;20.55;14.88;;;17.90;54.10;;;;;;5044670;28;20056;-70
2021/03/24 07:26:16;;;;;;;22.25;13.38;;;18.00;54.00;;;;;;5032330;28;20135;-70
2021/03/24 07:28:57;;;;;;;25.88;13.93;;;18.10;53.70;;;;;;5024569;28;20036;-70
2021/03/24 07:31:41;;;;;;;22.00;14.03;;;18.10;53.50;;;;;;5024392;28;20033;-70
2021/03/24 07:34:06;;;;;;;19.48;13.25;;;18.20;53.50;;;;;;5025171;28;20038;-68
2021/03/24 07:36:51;;;;;;;20.23;13.90;;;18.20;53.10;;;;;;5024709;28;20068;-69
2021/03/24 07:39:22;;;;;;;24.73;13.90;;;18.30;53.00;;;;;;5025875;28;20037;-71
2021/03/24 07:42:02;;;;;;;18.35;13.73;;;18.40;52.10;;;;;;5025787;28;20033;-70
2021/03/24 07:44:39;;;;;;;19.15;12.43;;;18.40;52.20;;;;;;5040853;28;20030;-70
2021/03/24 07:47:11;;;;;;;16.73;12.52;;;18.50;51.70;;;;;;5024728;28;20032;-70
2021/03/24 07:49:55;;;;;;;;;;;18.60;51.80;;;;;;5026016;28;20018;-71
2021/03/24 07:52:33;;;;;;;23.90;13.13;;;18.70;51.40;;;;;;5025638;28;19936;-70
2021/03/24 07:55:02;;;;;;;21.73;12.48;;;18.70;51.10;;;;;;5024683;28;20397;-68
2021/03/24 07:57:38;;;;;;;18.92;12.38;;;18.70;50.70;;;;;;5025846;28;20024;-70
2021/03/24 08:00:07;;;;;;;18.50;11.98;;;18.80;50.50;;;;;;5023782;28;20116;-70
2021/03/24 08:02:47;;;;;;;19.40;12.82;;;18.90;50.40;;;;;;5024361;28;20037;-69
2021/03/24 08:05:37;;;;;;;17.52;11.40;;;19.00;50.20;;;;;;5025725;28;20053;-72
2021/03/24 08:08:11;;;;;;;17.33;11.60;;;19.10;49.70;;;;;;5023492;28;20502;-72
2021/03/24 08:10:41;;;;;;;19.50;11.65;;;19.10;49.40;;;;;;5025979;28;20036;-72
2021/03/24 08:13:09;;;;;;;17.45;10.95;;;19.20;49.60;;;;;;5025301;28;20405;-74
2021/03/24 08:16:05;;;;;;;17.95;10.57;;;19.30;49.40;;;;;;5025017;28;20030;-72
2021/03/24 08:18:52;;;;;;;16.88;11.13;;;19.30;48.90;;;;;;5025325;28;20026;-73
2021/03/24 08:21:51;;;;;;;16.50;10.90;;;19.40;48.50;;;;;;5023864;28;20033;-73
2021/03/24 08:24:20;;;;;;;16.77;10.63;;;19.50;48.20;;;;;;5016933;28;20463;-72
2021/03/24 08:27:02;;;;;;;15.82;10.32;;;19.60;47.90;;;;;;5025027;28;20064;-73
2021/03/24 08:29:44;;;;;;;13.32;9.50;;;19.60;47.60;;;;;;5025178;28;20081;-73
2021/03/24 08:32:58;;;;;;;14.25;10.45;;;19.70;47.40;;;;;;5025696;28;20040;-73
2021/03/24 08:35:35;;;;;;;13.25;10.50;;;19.90;47.20;;;;;;5023738;28;20026;-73
2021/03/24 08:38:59;;;;;;;14.63;10.52;;;19.90;46.80;;;;;;5024863;28;20115;-73
2021/03/24 08:41:27;;;;;;;15.50;10.32;;;20.10;46.50;;;;;;5025101;28;20090;-73
2021/03/24 08:44:20;;;;;;;13.77;10.10;;;20.20;46.10;;;;;;5025054;28;20045;-73
2021/03/24 08:46:56;;;;;;;12.88;9.48;;;20.30;45.90;;;;;;5023758;28;20041;-72
2021/03/24 08:49:28;;;;;;;12.63;10.20;;;20.40;45.70;;;;;;5024442;28;20025;-71
2021/03/24 08:52:18;;;;;;;13.40;9.90;;;20.60;45.60;;;;;;5023478;28;20038;-71
2021/03/24 08:54:50;;;;;;;13.80;9.88;;;20.70;45.00;;;;;;5025095;28;20029;-72
2021/03/24 08:57:43;;;;;;;13.52;9.57;;;20.90;44.70;;;;;;5025081;28;20403;-73
2021/03/24 09:00:27;;;;;;;14.75;10.38;;;21.10;44.30;;;;;;5024321;28;20020;-70
2021/03/24 09:03:04;;;;;;;13.57;9.75;;;21.10;44.20;;;;;;5024870;28;20037;-73
2021/03/24 09:05:43;;;;;;;14.45;9.52;;;21.20;44.00;;;;;;5024792;28;20490;-73
2021/03/24 09:08:17;;;;;;;11.95;9.23;;;21.20;43.90;;;;;;5023140;28;20056;-71
2021/03/24 09:11:13;;;;;;;13.55;9.20;;;21.20;43.80;;;;;;5024827;28;20068;-72
2021/03/24 09:14:06;;;;;;;12.30;9.05;;;21.20;43.70;;;;;;5023253;28;20560;-71
2021/03/24 09:16:50;;;;;;;12.65;9.25;;;21.30;43.60;;;;;;5023267;28;20033;-72
2021/03/24 09:19:35;;;;;;;13.50;9.15;;;21.30;43.50;;;;;;5024406;28;20033;-72
2021/03/24 09:22:13;;;;;;;11.80;9.32;;;21.30;43.40;;;;;;5023212;28;20351;-73
2021/03/24 09:25:06;;;;;;;11.70;8.68;;;21.30;43.30;;;;;;5023091;28;20107;-71
2021/03/24 09:27:50;;;;;;;11.40;8.50;;;21.30;43.30;;;;;;5025127;28;20029;-72
2021/03/24 09:30:47;;;;;;;11.95;8.70;;;21.30;43.20;;;;;;5024517;28;20107;-73
2021/03/24 09:33:27;;;;;;;12.02;9.05;;;21.30;43.30;;;;;;5027825;28;20091;-72
2021/03/24 09:36:09;;;;;;;11.35;8.27;;;21.40;43.20;;;;;;5028253;28;20022;-72
2021/03/24 09:38:38;;;;;;;10.93;8.52;;;21.40;43.30;;;;;;5043420;28;20025;-73
2021/03/24 09:41:31;;;;;;;13.27;8.57;;;21.50;43.00;;;;;;5026705;28;20021;-73
2021/03/24 09:44:01;;;;;;;11.02;8.23;;;21.40;43.10;;;;;;5027929;28;20025;-73
2021/03/24 09:46:46;;;;;;;11.75;8.23;;;21.40;43.30;;;;;;5027934;28;20183;-73
2021/03/24 09:49:16;;;;;;;10.70;7.55;;;21.40;43.10;;;;;;5027714;28;20519;-71
2021/03/24 09:51:42;;;;;;;9.02;7.32;;;21.50;43.10;;;;;;5026635;28;20029;-72
2021/03/24 09:54:24;;;;;;;11.07;7.78;;;21.40;43.50;;;;;;5026300;28;20375;-72
2021/03/24 09:57:18;;;;;;;11.32;7.63;;;21.50;43.30;;;;;;5027730;28;20109;-71
2021/03/24 09:59:58;;;;;;;10.00;7.88;;;21.70;43.30;;;;;;5041855;28;20033;-71
2021/03/24 10:02:36;;;;;;;11.15;7.85;;;21.60;42.90;;;;;;5026508;28;20605;-71
2021/03/24 10:05:05;;;;;;;10.45;7.68;;;21.60;43.10;;;;;;5027334;28;20486;-71
2021/03/24 10:07:32;;;;;;;10.15;7.22;;;21.60;43.00;;;;;;5025990;28;20026;-71
2021/03/24 10:10:19;;;;;;;9.55;7.15;;;21.70;42.90;;;;;;5027352;28;20021;-71
2021/03/24 10:12:57;;;;;;;13.00;7.75;;;21.70;42.90;;;;;;5026198;28;20650;-71
2021/03/24 10:15:26;;;;;;;9.75;7.30;;;21.70;42.60;;;;;;5027410;28;20048;-71
2021/03/24 10:18:07;;;;;;;11.32;7.63;;;21.80;42.60;;;;;;5027293;28;20028;-71
2021/03/24 10:20:38;;;;;;;;;;;21.90;42.30;;;;;;5027543;28;20768;-70
2021/03/24 10:23:18;;;;;;;10.77;7.55;;;22.00;42.20;;;;;;5027567;28;20277;-72
2021/03/24 10:25:50;;;;;;;9.65;7.45;;;21.90;42.20;;;;;;5027212;28;20036;-70
2021/03/24 10:28:34;;;;;;;10.48;7.60;;;21.90;42.30;;;;;;5025556;28;20132;-71
2021/03/24 10:31:28;;;;;;;10.80;7.28;;;21.90;42.40;;;;;;5026532;28;20030;-71
2021/03/24 10:34:00;;;;;;;10.55;7.30;;;21.90;42.40;;;;;;5028958;28;20056;-72
2021/03/24 10:36:36;;;;;;;9.88;7.45;;;22.00;42.10;;;;;;5027261;28;20041;-71
2021/03/24 10:39:15;;;;;;;10.27;7.20;;;22.10;42.10;;;;;;5031324;28;20047;-73
2021/03/24 10:42:28;;;;;;;11.75;7.78;;;22.00;42.10;;;;;;5047528;28;20017;-71
2021/03/24 10:45:19;;;;;;;11.23;7.63;;;22.00;41.90;;;;;;5004803;28;20026;-73
2021/03/24 10:47:57;;;;;;;11.85;7.40;;;22.10;42.10;;;;;;4988917;28;20033;-71
2021/03/24 10:50:41;;;;;;;11.68;7.65;;;22.10;41.80;;;;;;5014013;28;20041;-71
2021/03/24 10:53:29;;;;;;;10.60;7.70;;;22.40;41.50;;;;;;5044462;28;20068;-72
2021/03/24 10:56:27;;;;;;;10.32;7.32;;;22.30;41.50;;;;;;5045039;28;20075;-72
2021/03/24 10:59:04;;;;;;;8.95;6.70;;;22.20;41.80;;;;;;5046244;28;20453;-72
2021/03/24 11:01:52;;;;;;;16.20;8.00;;;22.30;41.60;;;;;;5045516;28;20082;-71
2021/03/24 11:04:24;;;;;;;11.07;8.20;;;22.50;41.10;;;;;;5043759;28;20310;-72
2021/03/24 11:07:09;;;;;;;12.30;7.90;;;22.50;41.10;;;;;;5045583;28;20036;-71
2021/03/24 11:09:59;;;;;;;10.40;7.25;;;22.40;41.40;;;;;;5045847;28;20032;-73
2021/03/24 11:12:36;;;;;;;;;;;22.30;42.00;;;;;;5046631;28;20481;-71
2021/03/24 11:15:25;;;;;;;12.68;8.05;;;22.20;41.50;;;;;;5045976;28;19909;-72
2021/03/24 11:18:01;;;;;;;13.68;8.13;;;22.40;41.50;;;;;;5045794;28;20128;-72
2021/03/24 11:20:55;;;;;;;12.05;7.88;;;22.60;41.00;;;;;;5044697;28;20044;-73
2021/03/24 11:23:44;;;;;;;11.50;7.80;;;22.40;41.50;;;;;;5045905;28;20025;-69
2021/03/24 11:26:13;;;;;;;10.13;7.25;;;22.30;41.60;;;;;;5044340;28;20114;-71
2021/03/24 11:28:43;;;;;;;12.50;7.53;;;22.30;41.60;;;;;;5043930;28;20037;-69
2021/03/24 11:31:13;;;;;;;9.73;7.43;;;22.20;41.70;;;;;;5044448;28;20079;-67
2021/03/24 11:33:46;;;;;;;21.30;8.75;;;22.20;41.70;;;;;;5046162;28;20033;-72
2021/03/24 11:36:21;;;;;;;13.00;7.57;;;22.40;41.20;;;;;;5044140;28;20021;-71
2021/03/24 11:39:01;;;;;;;12.95;7.55;;;22.60;41.20;;;;;;5045788;28;20033;-70
2021/03/24 11:41:31;;;;;;;12.18;8.00;;;22.40;41.40;;;;;;5045891;28;20374;-70
2021/03/24 11:44:12;;;;;;;12.23;8.05;;;22.20;41.60;;;;;;5045534;28;20521;-71
2021/03/24 11:47:01;;;;;;;11.10;7.50;;;22.20;41.80;;;;;;5045508;28;20040;-70
2021/03/24 11:49:38;;;;;;;11.57;7.78;;;22.20;41.90;;;;;;5043690;28;20025;-71
2021/03/24 11:52:17;;;;;;;12.77;8.13;;;22.30;41.60;;;;;;5045490;28;20031;-69
2021/03/24 11:54:49;;;;;;;12.68;7.93;;;22.30;41.50;;;;;;5044605;28;20032;-71
2021/03/24 11:57:35;;;;;;;10.63;7.47;;;22.30;41.60;;;;;;5045307;28;20219;-71
2021/03/24 12:00:26;;;;;;;11.88;8.05;;;22.20;41.70;;;;;;5045075;28;20443;-72
2021/03/24 12:03:17;;;;;;;11.73;7.63;;;22.20;41.90;;;;;;5043827;28;20035;-69
2021/03/24 12:05:56;;;;;;;11.80;8.07;;;22.10;41.90;;;;;;5044406;28;20444;-69
2021/03/24 12:08:21;;;;;;;11.40;7.20;;;22.20;41.90;;;;;;5043442;28;20060;-72
2021/03/24 12:11:11;;;;;;;11.85;6.80;;;22.30;41.60;;;;;;5045173;28;20501;-71
2021/03/24 12:13:37;;;;;;;13.30;7.70;;;22.20;41.80;;;;;;5043902;28;20029;-70
2021/03/24 12:16:14;;;;;;;10.57;7.18;;;22.10;41.90;;;;;;5044750;28;20730;-70
2021/03/24 12:18:51;;;;;;;11.70;7.60;;;22.10;42.00;;;;;;5044934;28;20033;-72
2021/03/24 12:21:29;;;;;;;10.32;7.68;;;22.10;42.00;;;;;;5044756;28;20040;-71
2021/03/24 12:23:59;;;;;;;12.27;7.82;;;22.20;41.80;;;;;;5043475;28;20037;-72
2021/03/24 12:26:32;;;;;;;10.73;7.13;;;22.10;41.80;;;;;;5043281;28;20036;-71
2021/03/24 12:29:10;;;;;;;12.32;7.22;;;22.20;41.80;;;;;;5044573;28;20231;-69
2021/03/24 12:32:08;;;;;;;11.77;7.47;;;22.30;41.50;;;;;;5045138;28;20339;-69
2021/03/24 12:34:44;;;;;;;11.05;7.25;;;22.10;41.60;;;;;;5037932;28;20553;-71
2021/03/24 12:37:34;;;;;;;11.15;7.32;;;22.10;42.00;;;;;;5044875;28;20036;-71
2021/03/24 12:40:11;;;;;;;11.57;7.78;;;22.00;42.10;;;;;;5043107;28;20060;-71
2021/03/24 12:42:37;;;;;;;10.63;7.07;;;22.00;42.00;;;;;;5043143;28;20273;-72
2021/03/24 12:45:26;;;;;;;9.95;7.05;;;21.90;42.30;;;;;;5043597;28;20025;-72
2021/03/24 12:48:03;;;;;;;10.70;7.65;;;21.80;42.40;;;;;;5043417;28;20021;-71
2021/03/24 12:50:30;;;;;;;10.65;7.38;;;21.50;42.70;;;;;;5043083;28;20111;-71
2021/03/24 12:53:24;;;;;;;10.73;7.22;;;21.20;43.80;;;;;;5043191;28;20048;-71
2021/03/24 12:56:06;;;;;;;10.43;6.78;;;20.70;45.00;;;;;;5035959;28;20047;-70
2021/03/24 12:58:46;;;;;;;11.57;7.18;;;20.30;46.10;;;;;;5042994;28;20025;-71
2021/03/24 13:01:29;;;;;;;11.98;7.30;;;20.00;46.70;;;;;;5043325;28;20066;-72
2021/03/24 13:04:00;;;;;;;11.35;7.03;;;19.90;46.90;;;;;;5044735;28;20132;-71
2021/03/24 13:06:32;;;;;;;10.95;7.05;;;19.80;47.10;;;;;;5046739;28;20246;-71
2021/03/24 13:09:28;;;;;;;12.38;7.20;;;19.70;47.50;;;;;;5041160;28;20090;-69
2021/03/24 13:12:16;;;;;;;9.93;6.57;;;19.70;47.30;;;;;;5038189;28;20509;-71
2021/03/24 13:14:48;;;;;;;11.00;6.50;;;19.70;47.50;;;;;;5034750;28;20025;-72
2021/03/24 13:17:23;;;;;;;11.50;7.63;;;19.60;47.90;;;;;;5028630;28;20429;-72
2021/03/24 13:19:57;;;;;;;28.38;13.25;;;19.50;47.80;;;;;;5028118;28;20095;-72
2021/03/24 13:22:30;;;;;;;55.40;17.85;;;19.40;48.20;;;;;;5037899;28;20033;-72